sensor_id;sensor_type;location;lat;lon;timestamp;P1;durP1;ratioP1;P2;durP2;ratioP2
70532;SDS011;58088;51.186;17.130;2023-06-22T00:00:56;19.70;;;13.80;;
70532;SDS011;58088;51.186;17.130;2023-06-22T00:03:24;18.40;;;13.70;;
70532;SDS011;58088;51.186;17.130;2023-06-22T00:05:51;16.00;;;12.40;;
70532;SDS011;58088;51.186;17.130;2023-06-22T00:08:18;17.40;;;13.20;;
70532;SDS011;58088;51.186;17.130;2023-06-22T00:10:46;18.40;;;13.30;;
70532;SDS011;58088;51.186;17.130;2023-06-22T00:13:13;17.80;;;13.30;;
70532;SDS011;58088;51.186;17.130;2023-06-22T00:15:41;16.90;;;13.00;;
70532;SDS011;58088;51.186;17.130;2023-06-22T00:18:08;17.80;;;12.30;;
70532;SDS011;58088;51.186;17.130;2023-06-22T00:20:37;20.00;;;13.40;;
70532;SDS011;58088;51.186;17.130;2023-06-22T00:23:04;16.70;;;12.40;;
70532;SDS011;58088;51.186;17.130;2023-06-22T00:25:35;16.70;;;12.50;;
70532;SDS011;58088;51.186;17.130;2023-06-22T00:28:04;16.50;;;12.10;;
70532;SDS011;58088;51.186;17.130;2023-06-22T00:30:31;17.40;;;13.00;;
70532;SDS011;58088;51.186;17.130;2023-06-22T00:32:58;18.00;;;12.70;;
70532;SDS011;58088;51.186;17.130;2023-06-22T00:35:25;17.50;;;12.00;;
70532;SDS011;58088;51.186;17.130;2023-06-22T00:37:56;17.60;;;12.50;;
70532;SDS011;58088;51.186;17.130;2023-06-22T00:40:31;17.80;;;12.60;;
70532;SDS011;58088;51.186;17.130;2023-06-22T00:42:58;17.90;;;12.80;;
70532;SDS011;58088;51.186;17.130;2023-06-22T00:45:26;17.50;;;12.80;;
70532;SDS011;58088;51.186;17.130;2023-06-22T00:47:55;19.10;;;13.50;;
70532;SDS011;58088;51.186;17.130;2023-06-22T00:50:26;15.80;;;12.70;;
70532;SDS011;58088;51.186;17.130;2023-06-22T00:53:00;16.70;;;12.00;;
70532;SDS011;58088;51.186;17.130;2023-06-22T00:55:41;18.20;;;12.50;;
70532;SDS011;58088;51.186;17.130;2023-06-22T00:58:13;17.70;;;12.40;;
70532;SDS011;58088;51.186;17.130;2023-06-22T01:00:41;16.60;;;12.20;;
70532;SDS011;58088;51.186;17.130;2023-06-22T01:03:09;20.20;;;12.70;;
70532;SDS011;58088;51.186;17.130;2023-06-22T01:05:38;18.80;;;12.90;;
70532;SDS011;58088;51.186;17.130;2023-06-22T01:08:16;19.30;;;12.60;;
70532;SDS011;58088;51.186;17.130;2023-06-22T01:10:58;22.10;;;13.00;;
70532;SDS011;58088;51.186;17.130;2023-06-22T01:16:35;21.10;;;13.80;;
70532;SDS011;58088;51.186;17.130;2023-06-22T01:20:06;19.30;;;13.80;;
70532;SDS011;58088;51.186;17.130;2023-06-22T01:22:22;20.80;;;14.50;;
70532;SDS011;58088;51.186;17.130;2023-06-22T01:25:01;24.90;;;15.60;;
70532;SDS011;58088;51.186;17.130;2023-06-22T01:28:23;22.90;;;15.50;;
70532;SDS011;58088;51.186;17.130;2023-06-22T01:30:51;21.90;;;15.90;;
70532;SDS011;58088;51.186;17.130;2023-06-22T01:33:33;23.70;;;15.20;;
70532;SDS011;58088;51.186;17.130;2023-06-22T01:36:03;18.40;;;14.10;;
70532;SDS011;58088;51.186;17.130;2023-06-22T01:38:32;22.70;;;15.10;;
70532;SDS011;58088;51.186;17.130;2023-06-22T01:41:00;22.30;;;14.70;;
70532;SDS011;58088;51.186;17.130;2023-06-22T01:43:27;21.90;;;15.40;;
70532;SDS011;58088;51.186;17.130;2023-06-22T01:45:57;21.50;;;15.80;;
70532;SDS011;58088;51.186;17.130;2023-06-22T01:48:26;22.90;;;16.10;;
70532;SDS011;58088;51.186;17.130;2023-06-22T01:50:53;20.20;;;15.40;;
70532;SDS011;58088;51.186;17.130;2023-06-22T01:53:21;20.90;;;15.20;;
70532;SDS011;58088;51.186;17.130;2023-06-22T01:55:50;20.90;;;14.90;;
70532;SDS011;58088;51.186;17.130;2023-06-22T01:58:17;19.70;;;14.30;;
70532;SDS011;58088;51.186;17.130;2023-06-22T02:01:11;21.80;;;15.60;;
70532;SDS011;58088;51.186;17.130;2023-06-22T02:04:08;22.10;;;15.00;;
70532;SDS011;58088;51.186;17.130;2023-06-22T02:06:42;23.50;;;15.50;;
70532;SDS011;58088;51.186;17.130;2023-06-22T02:09:16;21.50;;;14.50;;
70532;SDS011;58088;51.186;17.130;2023-06-22T02:11:45;22.30;;;15.30;;
70532;SDS011;58088;51.186;17.130;2023-06-22T02:14:14;22.20;;;14.70;;
70532;SDS011;58088;51.186;17.130;2023-06-22T02:16:42;23.10;;;15.40;;
70532;SDS011;58088;51.186;17.130;2023-06-22T02:19:09;22.60;;;15.80;;
70532;SDS011;58088;51.186;17.130;2023-06-22T02:21:35;22.80;;;16.00;;
70532;SDS011;58088;51.186;17.130;2023-06-22T02:24:01;22.90;;;16.50;;
70532;SDS011;58088;51.186;17.130;2023-06-22T02:26:30;21.70;;;15.10;;
70532;SDS011;58088;51.186;17.130;2023-06-22T02:28:57;22.40;;;15.10;;
70532;SDS011;58088;51.186;17.130;2023-06-22T02:31:23;23.20;;;15.30;;
70532;SDS011;58088;51.186;17.130;2023-06-22T02:33:59;22.00;;;13.80;;
70532;SDS011;58088;51.186;17.130;2023-06-22T02:36:26;21.70;;;14.70;;
70532;SDS011;58088;51.186;17.130;2023-06-22T02:38:56;23.20;;;14.50;;
70532;SDS011;58088;51.186;17.130;2023-06-22T02:41:27;23.60;;;15.60;;
70532;SDS011;58088;51.186;17.130;2023-06-22T02:43:55;20.20;;;14.20;;
70532;SDS011;58088;51.186;17.130;2023-06-22T02:46:22;22.80;;;16.10;;
70532;SDS011;58088;51.186;17.130;2023-06-22T02:48:48;22.90;;;14.40;;
70532;SDS011;58088;51.186;17.130;2023-06-22T02:51:15;20.70;;;15.40;;
70532;SDS011;58088;51.186;17.130;2023-06-22T02:53:41;22.30;;;15.40;;
70532;SDS011;58088;51.186;17.130;2023-06-22T02:56:11;21.80;;;14.40;;
70532;SDS011;58088;51.186;17.130;2023-06-22T02:58:38;20.90;;;13.50;;
70532;SDS011;58088;51.186;17.130;2023-06-22T03:01:07;20.80;;;13.80;;
70532;SDS011;58088;51.186;17.130;2023-06-22T03:03:33;18.60;;;12.90;;
70532;SDS011;58088;51.186;17.130;2023-06-22T03:05:59;20.00;;;13.90;;
70532;SDS011;58088;51.186;17.130;2023-06-22T03:08:28;21.90;;;15.10;;
70532;SDS011;58088;51.186;17.130;2023-06-22T03:10:55;20.50;;;14.20;;
70532;SDS011;58088;51.186;17.130;2023-06-22T03:13:22;22.60;;;15.90;;
70532;SDS011;58088;51.186;17.130;2023-06-22T03:15:48;24.90;;;16.10;;
70532;SDS011;58088;51.186;17.130;2023-06-22T03:18:14;25.20;;;16.10;;
70532;SDS011;58088;51.186;17.130;2023-06-22T03:20:41;22.40;;;15.80;;
70532;SDS011;58088;51.186;17.130;2023-06-22T03:23:08;23.50;;;16.30;;
70532;SDS011;58088;51.186;17.130;2023-06-22T03:25:35;22.30;;;16.60;;
70532;SDS011;58088;51.186;17.130;2023-06-22T03:28:02;22.30;;;15.60;;
70532;SDS011;58088;51.186;17.130;2023-06-22T03:30:28;24.30;;;16.40;;
70532;SDS011;58088;51.186;17.130;2023-06-22T03:32:54;25.50;;;16.50;;
70532;SDS011;58088;51.186;17.130;2023-06-22T03:35:20;22.70;;;15.30;;
70532;SDS011;58088;51.186;17.130;2023-06-22T03:37:47;22.70;;;15.50;;
70532;SDS011;58088;51.186;17.130;2023-06-22T03:40:13;21.50;;;15.70;;
70532;SDS011;58088;51.186;17.130;2023-06-22T03:42:40;22.20;;;16.20;;
70532;SDS011;58088;51.186;17.130;2023-06-22T03:45:06;22.40;;;16.00;;
70532;SDS011;58088;51.186;17.130;2023-06-22T03:47:33;20.10;;;15.50;;
70532;SDS011;58088;51.186;17.130;2023-06-22T03:49:59;21.70;;;15.30;;
70532;SDS011;58088;51.186;17.130;2023-06-22T03:52:26;20.70;;;15.70;;
70532;SDS011;58088;51.186;17.130;2023-06-22T03:54:52;22.20;;;15.80;;
70532;SDS011;58088;51.186;17.130;2023-06-22T03:57:18;21.40;;;16.10;;
70532;SDS011;58088;51.186;17.130;2023-06-22T03:59:44;21.90;;;16.00;;
70532;SDS011;58088;51.186;17.130;2023-06-22T04:02:10;21.00;;;16.00;;
70532;SDS011;58088;51.186;17.130;2023-06-22T04:04:40;23.50;;;16.50;;
70532;SDS011;58088;51.186;17.130;2023-06-22T04:07:06;24.60;;;17.20;;
70532;SDS011;58088;51.186;17.130;2023-06-22T04:09:33;23.10;;;17.00;;
70532;SDS011;58088;51.186;17.130;2023-06-22T04:11:59;22.20;;;16.30;;
70532;SDS011;58088;51.186;17.130;2023-06-22T04:14:26;24.20;;;17.10;;
70532;SDS011;58088;51.186;17.130;2023-06-22T04:16:52;23.30;;;16.60;;
70532;SDS011;58088;51.186;17.130;2023-06-22T04:19:18;24.20;;;16.80;;
70532;SDS011;58088;51.186;17.130;2023-06-22T04:21:44;24.30;;;15.80;;
70532;SDS011;58088;51.186;17.130;2023-06-22T04:24:11;20.00;;;15.80;;
70532;SDS011;58088;51.186;17.130;2023-06-22T04:26:37;20.70;;;16.00;;
70532;SDS011;58088;51.186;17.130;2023-06-22T04:29:04;21.90;;;16.50;;
70532;SDS011;58088;51.186;17.130;2023-06-22T04:31:32;20.80;;;16.50;;
70532;SDS011;58088;51.186;17.130;2023-06-22T04:34:04;21.50;;;17.50;;
70532;SDS011;58088;51.186;17.130;2023-06-22T04:36:39;20.40;;;16.80;;
70532;SDS011;58088;51.186;17.130;2023-06-22T04:39:08;23.30;;;17.70;;
70532;SDS011;58088;51.186;17.130;2023-06-22T04:41:39;22.50;;;17.40;;
70532;SDS011;58088;51.186;17.130;2023-06-22T04:44:16;23.70;;;17.80;;
70532;SDS011;58088;51.186;17.130;2023-06-22T04:47:00;23.90;;;18.10;;
70532;SDS011;58088;51.186;17.130;2023-06-22T04:49:30;22.40;;;16.90;;
70532;SDS011;58088;51.186;17.130;2023-06-22T04:52:05;20.70;;;17.50;;
70532;SDS011;58088;51.186;17.130;2023-06-22T04:54:34;23.80;;;18.00;;
70532;SDS011;58088;51.186;17.130;2023-06-22T04:57:02;25.10;;;19.70;;
70532;SDS011;58088;51.186;17.130;2023-06-22T04:59:30;25.20;;;19.40;;
70532;SDS011;58088;51.186;17.130;2023-06-22T05:01:58;22.20;;;17.70;;
70532;SDS011;58088;51.186;17.130;2023-06-22T05:04:27;21.70;;;17.80;;
70532;SDS011;58088;51.186;17.130;2023-06-22T05:06:57;23.00;;;18.00;;
70532;SDS011;58088;51.186;17.130;2023-06-22T05:09:24;23.90;;;19.70;;
70532;SDS011;58088;51.186;17.130;2023-06-22T05:11:50;22.40;;;17.10;;
70532;SDS011;58088;51.186;17.130;2023-06-22T05:14:17;23.20;;;19.00;;
70532;SDS011;58088;51.186;17.130;2023-06-22T05:16:45;21.60;;;17.80;;
70532;SDS011;58088;51.186;17.130;2023-06-22T05:19:12;23.80;;;18.20;;
70532;SDS011;58088;51.186;17.130;2023-06-22T05:21:38;20.60;;;17.10;;
70532;SDS011;58088;51.186;17.130;2023-06-22T05:24:05;21.60;;;18.50;;
70532;SDS011;58088;51.186;17.130;2023-06-22T05:26:33;20.50;;;15.00;;
70532;SDS011;58088;51.186;17.130;2023-06-22T05:29:02;18.90;;;15.40;;
70532;SDS011;58088;51.186;17.130;2023-06-22T05:31:29;19.50;;;14.60;;
70532;SDS011;58088;51.186;17.130;2023-06-22T05:33:55;13.60;;;11.20;;
70532;SDS011;58088;51.186;17.130;2023-06-22T05:36:22;17.40;;;13.70;;
70532;SDS011;58088;51.186;17.130;2023-06-22T05:38:52;17.00;;;13.90;;
70532;SDS011;58088;51.186;17.130;2023-06-22T05:41:18;17.20;;;13.80;;
70532;SDS011;58088;51.186;17.130;2023-06-22T05:43:45;16.20;;;12.30;;
70532;SDS011;58088;51.186;17.130;2023-06-22T05:46:11;16.10;;;13.90;;
70532;SDS011;58088;51.186;17.130;2023-06-22T05:48:37;19.00;;;13.50;;
70532;SDS011;58088;51.186;17.130;2023-06-22T05:51:03;15.50;;;12.50;;
70532;SDS011;58088;51.186;17.130;2023-06-22T05:53:29;15.80;;;12.60;;
70532;SDS011;58088;51.186;17.130;2023-06-22T05:55:55;18.30;;;15.30;;
70532;SDS011;58088;51.186;17.130;2023-06-22T05:58:21;16.60;;;13.80;;
70532;SDS011;58088;51.186;17.130;2023-06-22T06:00:48;16.10;;;12.70;;
70532;SDS011;58088;51.186;17.130;2023-06-22T06:03:14;15.90;;;14.00;;
70532;SDS011;58088;51.186;17.130;2023-06-22T06:05:42;14.40;;;11.50;;
70532;SDS011;58088;51.186;17.130;2023-06-22T06:08:09;19.80;;;14.90;;
70532;SDS011;58088;51.186;17.130;2023-06-22T06:10:36;18.00;;;14.60;;
70532;SDS011;58088;51.186;17.130;2023-06-22T06:13:03;17.60;;;15.00;;
70532;SDS011;58088;51.186;17.130;2023-06-22T06:15:31;18.60;;;13.10;;
70532;SDS011;58088;51.186;17.130;2023-06-22T06:17:58;18.20;;;14.40;;
70532;SDS011;58088;51.186;17.130;2023-06-22T06:20:25;18.10;;;14.90;;
70532;SDS011;58088;51.186;17.130;2023-06-22T06:22:53;16.20;;;13.80;;
70532;SDS011;58088;51.186;17.130;2023-06-22T06:25:19;16.50;;;12.00;;
70532;SDS011;58088;51.186;17.130;2023-06-22T06:27:49;17.00;;;13.00;;
70532;SDS011;58088;51.186;17.130;2023-06-22T06:30:18;15.00;;;12.60;;
70532;SDS011;58088;51.186;17.130;2023-06-22T06:32:45;15.10;;;11.70;;
70532;SDS011;58088;51.186;17.130;2023-06-22T06:35:13;14.60;;;12.10;;
70532;SDS011;58088;51.186;17.130;2023-06-22T06:37:43;18.10;;;13.00;;
70532;SDS011;58088;51.186;17.130;2023-06-22T06:40:13;15.70;;;11.90;;
70532;SDS011;58088;51.186;17.130;2023-06-22T06:42:42;17.60;;;14.40;;
70532;SDS011;58088;51.186;17.130;2023-06-22T06:45:11;17.50;;;14.70;;
70532;SDS011;58088;51.186;17.130;2023-06-22T06:47:39;16.40;;;12.80;;
70532;SDS011;58088;51.186;17.130;2023-06-22T06:50:06;15.00;;;11.10;;
70532;SDS011;58088;51.186;17.130;2023-06-22T06:52:33;15.20;;;11.10;;
70532;SDS011;58088;51.186;17.130;2023-06-22T06:54:59;13.50;;;11.20;;
70532;SDS011;58088;51.186;17.130;2023-06-22T06:57:25;15.30;;;12.50;;
70532;SDS011;58088;51.186;17.130;2023-06-22T06:59:56;14.20;;;11.30;;
70532;SDS011;58088;51.186;17.130;2023-06-22T07:02:23;15.20;;;10.70;;
70532;SDS011;58088;51.186;17.130;2023-06-22T07:04:49;12.90;;;10.20;;
70532;SDS011;58088;51.186;17.130;2023-06-22T07:07:16;12.90;;;10.70;;
70532;SDS011;58088;51.186;17.130;2023-06-22T07:09:43;14.30;;;10.80;;
70532;SDS011;58088;51.186;17.130;2023-06-22T07:12:09;16.90;;;12.60;;
70532;SDS011;58088;51.186;17.130;2023-06-22T07:14:35;13.40;;;10.30;;
70532;SDS011;58088;51.186;17.130;2023-06-22T07:17:01;13.50;;;10.80;;
70532;SDS011;58088;51.186;17.130;2023-06-22T07:19:28;14.30;;;10.90;;
70532;SDS011;58088;51.186;17.130;2023-06-22T07:21:54;16.20;;;11.00;;
70532;SDS011;58088;51.186;17.130;2023-06-22T07:24:21;12.40;;;10.00;;
70532;SDS011;58088;51.186;17.130;2023-06-22T07:26:49;13.90;;;10.20;;
70532;SDS011;58088;51.186;17.130;2023-06-22T07:29:17;14.30;;;10.80;;
70532;SDS011;58088;51.186;17.130;2023-06-22T07:31:44;11.40;;;9.60;;
70532;SDS011;58088;51.186;17.130;2023-06-22T07:34:10;11.30;;;9.80;;
70532;SDS011;58088;51.186;17.130;2023-06-22T07:36:37;11.80;;;9.40;;
70532;SDS011;58088;51.186;17.130;2023-06-22T07:39:03;12.30;;;10.40;;
70532;SDS011;58088;51.186;17.130;2023-06-22T07:41:30;12.30;;;9.90;;
70532;SDS011;58088;51.186;17.130;2023-06-22T07:43:57;12.80;;;10.70;;
70532;SDS011;58088;51.186;17.130;2023-06-22T07:46:23;12.70;;;10.60;;
70532;SDS011;58088;51.186;17.130;2023-06-22T07:48:49;13.00;;;9.90;;
70532;SDS011;58088;51.186;17.130;2023-06-22T07:51:15;11.50;;;9.10;;
70532;SDS011;58088;51.186;17.130;2023-06-22T07:53:42;9.80;;;8.70;;
70532;SDS011;58088;51.186;17.130;2023-06-22T07:56:12;12.40;;;9.70;;
70532;SDS011;58088;51.186;17.130;2023-06-22T07:58:39;13.40;;;10.90;;
70532;SDS011;58088;51.186;17.130;2023-06-22T08:01:05;11.40;;;9.40;;
70532;SDS011;58088;51.186;17.130;2023-06-22T08:03:32;12.70;;;10.70;;
70532;SDS011;58088;51.186;17.130;2023-06-22T08:05:58;11.90;;;9.30;;
70532;SDS011;58088;51.186;17.130;2023-06-22T08:08:24;11.10;;;9.60;;
70532;SDS011;58088;51.186;17.130;2023-06-22T08:10:50;11.90;;;9.40;;
70532;SDS011;58088;51.186;17.130;2023-06-22T08:13:16;11.90;;;9.60;;
70532;SDS011;58088;51.186;17.130;2023-06-22T08:15:43;13.30;;;10.10;;
70532;SDS011;58088;51.186;17.130;2023-06-22T08:18:09;12.50;;;10.50;;
70532;SDS011;58088;51.186;17.130;2023-06-22T08:20:36;10.90;;;9.50;;
70532;SDS011;58088;51.186;17.130;2023-06-22T08:23:02;13.80;;;11.00;;
70532;SDS011;58088;51.186;17.130;2023-06-22T08:25:35;11.60;;;8.90;;
70532;SDS011;58088;51.186;17.130;2023-06-22T08:28:03;13.30;;;10.60;;
70532;SDS011;58088;51.186;17.130;2023-06-22T08:30:29;12.00;;;10.50;;
70532;SDS011;58088;51.186;17.130;2023-06-22T08:32:56;12.30;;;9.60;;
70532;SDS011;58088;51.186;17.130;2023-06-22T08:35:23;12.30;;;9.90;;
70532;SDS011;58088;51.186;17.130;2023-06-22T08:37:49;12.30;;;10.50;;
70532;SDS011;58088;51.186;17.130;2023-06-22T08:40:18;11.80;;;9.90;;
70532;SDS011;58088;51.186;17.130;2023-06-22T08:42:46;14.10;;;10.80;;
70532;SDS011;58088;51.186;17.130;2023-06-22T08:45:13;11.80;;;9.80;;
70532;SDS011;58088;51.186;17.130;2023-06-22T08:47:41;12.00;;;9.80;;
70532;SDS011;58088;51.186;17.130;2023-06-22T08:50:09;12.50;;;10.20;;
70532;SDS011;58088;51.186;17.130;2023-06-22T08:52:37;11.90;;;9.50;;
70532;SDS011;58088;51.186;17.130;2023-06-22T08:55:07;12.10;;;10.40;;
70532;SDS011;58088;51.186;17.130;2023-06-22T08:57:35;10.90;;;9.50;;
70532;SDS011;58088;51.186;17.130;2023-06-22T09:00:08;12.30;;;10.40;;
70532;SDS011;58088;51.186;17.130;2023-06-22T09:02:46;13.20;;;10.40;;
70532;SDS011;58088;51.186;17.130;2023-06-22T09:05:14;12.00;;;9.60;;
70532;SDS011;58088;51.186;17.130;2023-06-22T09:07:41;11.90;;;9.90;;
70532;SDS011;58088;51.186;17.130;2023-06-22T09:10:08;11.40;;;10.10;;
70532;SDS011;58088;51.186;17.130;2023-06-22T09:12:34;12.10;;;10.20;;
70532;SDS011;58088;51.186;17.130;2023-06-22T09:15:02;12.50;;;10.60;;
70532;SDS011;58088;51.186;17.130;2023-06-22T09:17:29;10.50;;;8.60;;
70532;SDS011;58088;51.186;17.130;2023-06-22T09:19:55;11.30;;;9.00;;
70532;SDS011;58088;51.186;17.130;2023-06-22T09:22:21;10.80;;;9.10;;
70532;SDS011;58088;51.186;17.130;2023-06-22T09:24:50;11.80;;;9.50;;
70532;SDS011;58088;51.186;17.130;2023-06-22T09:27:16;10.10;;;8.80;;
70532;SDS011;58088;51.186;17.130;2023-06-22T09:29:42;11.60;;;9.20;;
70532;SDS011;58088;51.186;17.130;2023-06-22T09:32:09;14.40;;;9.10;;
70532;SDS011;58088;51.186;17.130;2023-06-22T09:34:35;11.40;;;8.90;;
70532;SDS011;58088;51.186;17.130;2023-06-22T09:37:02;11.10;;;8.80;;
70532;SDS011;58088;51.186;17.130;2023-06-22T09:39:28;10.70;;;8.40;;
70532;SDS011;58088;51.186;17.130;2023-06-22T09:41:54;10.10;;;8.40;;
70532;SDS011;58088;51.186;17.130;2023-06-22T09:44:20;9.30;;;8.10;;
70532;SDS011;58088;51.186;17.130;2023-06-22T09:46:46;10.10;;;8.50;;
70532;SDS011;58088;51.186;17.130;2023-06-22T09:49:13;9.50;;;8.30;;
70532;SDS011;58088;51.186;17.130;2023-06-22T09:51:39;10.90;;;8.40;;
70532;SDS011;58088;51.186;17.130;2023-06-22T09:54:05;10.20;;;7.70;;
70532;SDS011;58088;51.186;17.130;2023-06-22T09:56:31;12.70;;;9.00;;
70532;SDS011;58088;51.186;17.130;2023-06-22T09:58:57;10.90;;;8.70;;
70532;SDS011;58088;51.186;17.130;2023-06-22T10:01:23;9.40;;;7.10;;
70532;SDS011;58088;51.186;17.130;2023-06-22T10:03:52;8.30;;;7.00;;
70532;SDS011;58088;51.186;17.130;2023-06-22T10:06:22;8.70;;;7.30;;
70532;SDS011;58088;51.186;17.130;2023-06-22T10:08:50;9.40;;;7.50;;
70532;SDS011;58088;51.186;17.130;2023-06-22T10:11:19;8.80;;;7.10;;
70532;SDS011;58088;51.186;17.130;2023-06-22T10:13:45;8.20;;;7.10;;
70532;SDS011;58088;51.186;17.130;2023-06-22T10:16:11;9.30;;;7.30;;
70532;SDS011;58088;51.186;17.130;2023-06-22T10:18:37;8.80;;;7.30;;
70532;SDS011;58088;51.186;17.130;2023-06-22T10:21:03;9.40;;;6.70;;
70532;SDS011;58088;51.186;17.130;2023-06-22T10:23:29;8.60;;;6.40;;
70532;SDS011;58088;51.186;17.130;2023-06-22T10:25:56;8.10;;;6.70;;
70532;SDS011;58088;51.186;17.130;2023-06-22T10:28:23;9.90;;;7.40;;
70532;SDS011;58088;51.186;17.130;2023-06-22T10:30:49;8.50;;;7.30;;
70532;SDS011;58088;51.186;17.130;2023-06-22T10:33:16;13.20;;;7.60;;
70532;SDS011;58088;51.186;17.130;2023-06-22T10:35:42;9.30;;;7.40;;
70532;SDS011;58088;51.186;17.130;2023-06-22T10:38:08;8.70;;;7.10;;
70532;SDS011;58088;51.186;17.130;2023-06-22T10:40:34;10.10;;;7.90;;
70532;SDS011;58088;51.186;17.130;2023-06-22T10:43:00;12.00;;;8.60;;
70532;SDS011;58088;51.186;17.130;2023-06-22T10:45:26;9.00;;;7.50;;
70532;SDS011;58088;51.186;17.130;2023-06-22T10:47:55;8.50;;;7.40;;
70532;SDS011;58088;51.186;17.130;2023-06-22T10:50:21;9.60;;;7.70;;
70532;SDS011;58088;51.186;17.130;2023-06-22T10:52:49;10.00;;;8.10;;
70532;SDS011;58088;51.186;17.130;2023-06-22T10:55:15;9.60;;;7.30;;
70532;SDS011;58088;51.186;17.130;2023-06-22T10:57:42;9.30;;;7.60;;
70532;SDS011;58088;51.186;17.130;2023-06-22T11:00:10;9.60;;;7.70;;
70532;SDS011;58088;51.186;17.130;2023-06-22T11:02:37;10.00;;;7.80;;
70532;SDS011;58088;51.186;17.130;2023-06-22T11:05:04;13.30;;;7.80;;
70532;SDS011;58088;51.186;17.130;2023-06-22T11:07:31;10.20;;;7.30;;
70532;SDS011;58088;51.186;17.130;2023-06-22T11:09:57;8.20;;;6.80;;
70532;SDS011;58088;51.186;17.130;2023-06-22T11:12:23;8.50;;;6.90;;
70532;SDS011;58088;51.186;17.130;2023-06-22T11:14:49;8.60;;;7.30;;
70532;SDS011;58088;51.186;17.130;2023-06-22T11:17:18;10.30;;;7.60;;
70532;SDS011;58088;51.186;17.130;2023-06-22T11:19:45;10.10;;;7.60;;
70532;SDS011;58088;51.186;17.130;2023-06-22T11:22:11;10.30;;;7.20;;
70532;SDS011;58088;51.186;17.130;2023-06-22T11:24:37;11.30;;;7.20;;
70532;SDS011;58088;51.186;17.130;2023-06-22T11:27:03;10.20;;;7.40;;
70532;SDS011;58088;51.186;17.130;2023-06-22T11:29:29;10.30;;;7.70;;
70532;SDS011;58088;51.186;17.130;2023-06-22T11:31:57;9.20;;;7.60;;
70532;SDS011;58088;51.186;17.130;2023-06-22T11:34:23;10.60;;;7.80;;
70532;SDS011;58088;51.186;17.130;2023-06-22T11:36:49;9.10;;;7.60;;
70532;SDS011;58088;51.186;17.130;2023-06-22T11:39:15;9.20;;;7.80;;
70532;SDS011;58088;51.186;17.130;2023-06-22T11:41:41;9.10;;;7.90;;
70532;SDS011;58088;51.186;17.130;2023-06-22T11:44:08;9.20;;;6.90;;
70532;SDS011;58088;51.186;17.130;2023-06-22T11:46:34;9.60;;;7.30;;
70532;SDS011;58088;51.186;17.130;2023-06-22T11:49:01;10.20;;;7.00;;
70532;SDS011;58088;51.186;17.130;2023-06-22T11:51:28;9.70;;;6.90;;
70532;SDS011;58088;51.186;17.130;2023-06-22T11:53:57;9.40;;;6.90;;
70532;SDS011;58088;51.186;17.130;2023-06-22T11:56:23;11.60;;;7.30;;
70532;SDS011;58088;51.186;17.130;2023-06-22T11:58:49;8.90;;;6.90;;
70532;SDS011;58088;51.186;17.130;2023-06-22T12:01:15;9.60;;;7.30;;
70532;SDS011;58088;51.186;17.130;2023-06-22T12:03:41;9.90;;;7.60;;
70532;SDS011;58088;51.186;17.130;2023-06-22T12:06:09;11.10;;;8.60;;
70532;SDS011;58088;51.186;17.130;2023-06-22T12:08:35;9.50;;;7.90;;
70532;SDS011;58088;51.186;17.130;2023-06-22T12:11:01;10.00;;;8.30;;
70532;SDS011;58088;51.186;17.130;2023-06-22T12:13:27;10.50;;;8.60;;
70532;SDS011;58088;51.186;17.130;2023-06-22T12:15:54;9.80;;;7.80;;
70532;SDS011;58088;51.186;17.130;2023-06-22T12:18:20;8.60;;;7.60;;
70532;SDS011;58088;51.186;17.130;2023-06-22T12:20:47;10.60;;;7.20;;
70532;SDS011;58088;51.186;17.130;2023-06-22T12:23:14;10.10;;;7.60;;
70532;SDS011;58088;51.186;17.130;2023-06-22T12:25:41;9.30;;;7.50;;
70532;SDS011;58088;51.186;17.130;2023-06-22T12:28:07;8.50;;;7.00;;
70532;SDS011;58088;51.186;17.130;2023-06-22T12:30:33;9.30;;;7.50;;
70532;SDS011;58088;51.186;17.130;2023-06-22T12:32:59;10.90;;;7.70;;
70532;SDS011;58088;51.186;17.130;2023-06-22T12:35:25;9.70;;;7.90;;
70532;SDS011;58088;51.186;17.130;2023-06-22T12:37:51;9.20;;;6.60;;
70532;SDS011;58088;51.186;17.130;2023-06-22T12:40:18;8.50;;;6.90;;
70532;SDS011;58088;51.186;17.130;2023-06-22T12:42:45;8.70;;;7.30;;
70532;SDS011;58088;51.186;17.130;2023-06-22T12:45:11;8.70;;;7.10;;
70532;SDS011;58088;51.186;17.130;2023-06-22T12:47:37;9.80;;;6.90;;
70532;SDS011;58088;51.186;17.130;2023-06-22T12:50:04;9.10;;;7.40;;
70532;SDS011;58088;51.186;17.130;2023-06-22T12:52:31;7.90;;;6.30;;
70532;SDS011;58088;51.186;17.130;2023-06-22T12:54:58;8.30;;;6.50;;
70532;SDS011;58088;51.186;17.130;2023-06-22T12:57:24;8.60;;;6.80;;
70532;SDS011;58088;51.186;17.130;2023-06-22T12:59:51;9.60;;;6.60;;
70532;SDS011;58088;51.186;17.130;2023-06-22T13:02:17;10.20;;;7.70;;
70532;SDS011;58088;51.186;17.130;2023-06-22T13:04:43;8.20;;;6.60;;
70532;SDS011;58088;51.186;17.130;2023-06-22T13:07:09;8.90;;;7.10;;
70532;SDS011;58088;51.186;17.130;2023-06-22T13:09:36;8.50;;;7.00;;
70532;SDS011;58088;51.186;17.130;2023-06-22T13:12:03;9.50;;;6.90;;
70532;SDS011;58088;51.186;17.130;2023-06-22T13:14:29;8.80;;;6.50;;
70532;SDS011;58088;51.186;17.130;2023-06-22T13:16:59;8.00;;;6.40;;
70532;SDS011;58088;51.186;17.130;2023-06-22T13:19:25;8.10;;;6.60;;
70532;SDS011;58088;51.186;17.130;2023-06-22T13:21:54;9.20;;;6.10;;
70532;SDS011;58088;51.186;17.130;2023-06-22T13:24:20;9.10;;;6.30;;
70532;SDS011;58088;51.186;17.130;2023-06-22T13:26:46;9.30;;;6.40;;
70532;SDS011;58088;51.186;17.130;2023-06-22T13:29:12;10.80;;;6.80;;
70532;SDS011;58088;51.186;17.130;2023-06-22T13:31:38;9.00;;;7.40;;
70532;SDS011;58088;51.186;17.130;2023-06-22T13:34:05;9.10;;;6.40;;
70532;SDS011;58088;51.186;17.130;2023-06-22T13:36:31;8.00;;;6.40;;
70532;SDS011;58088;51.186;17.130;2023-06-22T13:38:57;9.50;;;7.20;;
70532;SDS011;58088;51.186;17.130;2023-06-22T13:41:23;8.50;;;6.80;;
70532;SDS011;58088;51.186;17.130;2023-06-22T13:43:50;11.20;;;6.90;;
70532;SDS011;58088;51.186;17.130;2023-06-22T13:46:16;9.50;;;6.80;;
70532;SDS011;58088;51.186;17.130;2023-06-22T13:48:42;7.50;;;6.50;;
70532;SDS011;58088;51.186;17.130;2023-06-22T13:51:08;10.00;;;6.50;;
70532;SDS011;58088;51.186;17.130;2023-06-22T13:53:34;43.40;;;7.70;;
70532;SDS011;58088;51.186;17.130;2023-06-22T13:56:00;11.10;;;7.20;;
70532;SDS011;58088;51.186;17.130;2023-06-22T13:58:27;8.30;;;6.30;;
70532;SDS011;58088;51.186;17.130;2023-06-22T14:00:53;8.30;;;6.70;;
70532;SDS011;58088;51.186;17.130;2023-06-22T14:03:19;9.40;;;6.10;;
70532;SDS011;58088;51.186;17.130;2023-06-22T14:05:45;8.80;;;7.00;;
70532;SDS011;58088;51.186;17.130;2023-06-22T14:08:12;8.60;;;6.50;;
70532;SDS011;58088;51.186;17.130;2023-06-22T14:10:38;8.60;;;6.60;;
70532;SDS011;58088;51.186;17.130;2023-06-22T14:13:04;8.50;;;6.90;;
70532;SDS011;58088;51.186;17.130;2023-06-22T14:15:32;9.90;;;6.40;;
70532;SDS011;58088;51.186;17.130;2023-06-22T14:17:58;8.60;;;6.10;;
70532;SDS011;58088;51.186;17.130;2023-06-22T14:20:25;9.80;;;6.70;;
70532;SDS011;58088;51.186;17.130;2023-06-22T14:22:51;8.10;;;6.30;;
70532;SDS011;58088;51.186;17.130;2023-06-22T14:25:17;7.90;;;6.30;;